This is the latest recevied weather packets stored in our database for station/object OE6JVE-13. If no packets are shown the sender has not sent any weather packets the latest 1 day(s).
| Time | Temp. | Humidity | Pressure | Rain* | Wind** | Luminosity | Snow |
|---|---|---|---|---|---|---|---|
| 1777973138 | 25° C | 30% | 1003.3 hPa | 0 mm | 3.13 m/s, 189° | - | - |
| 1777972546 | 23.89° C | 31% | 1003.3 hPa | 0 mm | 1.79 m/s, 200° | - | - |
| 1777971953 | 23.89° C | 30% | 1003.5 hPa | 0 mm | 2.68 m/s, 195° | - | - |
| 1777971362 | 23.33° C | 31% | 1003.7 hPa | 0 mm | 3.13 m/s, 198° | - | - |
| 1777970770 | 22.78° C | 31% | 1003.7 hPa | 0 mm | 0.89 m/s, 211° | - | - |
| 1777970177 | 22.22° C | 34% | 1003.7 hPa | 0 mm | 1.34 m/s, 202° | - | - |
| 1777969520 | 22.22° C | 34% | 1003.8 hPa | 0 mm | 1.79 m/s, 208° | - | - |
| 1777968927 | 22.22° C | 31% | 1003.9 hPa | 0 mm | 0.89 m/s, 54° | - | - |
| 1777968335 | 21.67° C | 30% | 1003.9 hPa | 0 mm | 2.24 m/s, 180° | - | - |
| 1777967743 | 21.67° C | 30% | 1004.1 hPa | 0 mm | 2.24 m/s, 191° | - | - |
| 1777967151 | 21.67° C | 31% | 1004 hPa | 0 mm | 2.24 m/s, 180° | - | - |
| 1777966559 | 21.11° C | 31% | 1004.1 hPa | 0 mm | 1.79 m/s, 200° | - | - |
| 1777965967 | 20.56° C | 32% | 1004.1 hPa | 0 mm | 3.13 m/s, 186° | - | - |
| 1777965374 | 20° C | 33% | 1004.1 hPa | 0 mm | 3.13 m/s, 180° | - | - |
| 1777964717 | 19.44° C | 38% | 1004.2 hPa | 0 mm | 2.24 m/s, 168° | - | - |
| 1777964125 | 18.33° C | 41% | 1004.3 hPa | 0 mm | 0.45 m/s, 208° | - | - |
| 1777963533 | 18.89° C | 36% | 1004.3 hPa | 0 mm | 0 m/s | - | - |
| 1777962941 | 18.89° C | 35% | 1004.2 hPa | 0 mm | 1.34 m/s, 181° | - | - |
| 1777962348 | 19.44° C | 36% | 1004.2 hPa | 0 mm | 0 m/s | - | - |
| 1777961756 | 19.44° C | 36% | 1004.3 hPa | 0 mm | 0.89 m/s, 186° | - | - |
| 1777961164 | 18.89° C | 37% | 1004.3 hPa | 0 mm | 1.34 m/s, 180° | - | - |
| 1777960572 | 18.33° C | 38% | 1004.3 hPa | 0 mm | 2.68 m/s, 180° | - | - |
| 1777959979 | 17.22° C | 46% | 1004.2 hPa | 0 mm | 0.89 m/s, 222° | - | - |
| 1777959322 | 17.22° C | 47% | 1004.1 hPa | 0 mm | 0 m/s | - | - |
| 1777958730 | 16.67° C | 46% | 1004.2 hPa | 0 mm | 1.34 m/s, 192° | - | - |
* Rain latest hour (hover to see other rain measurements)
** Current wind speed in m/s (hover to see current wind gust speed)